createdAt,value
2017-06-10T00:01:49.075Z,83.20
2017-06-10T00:04:17.301Z,84.50
2017-06-10T00:06:44.745Z,83.80
2017-06-10T00:09:12.225Z,83.60
2017-06-10T00:11:39.683Z,84.30
2017-06-10T00:14:07.150Z,82.50
2017-06-10T00:16:34.598Z,82.20
2017-06-10T00:19:02.049Z,81.70
2017-06-10T00:21:29.499Z,83.20
2017-06-10T00:23:56.957Z,82.40
2017-06-10T00:26:24.413Z,83.30
2017-06-10T00:28:51.870Z,83.10
2017-06-10T00:31:19.332Z,81.80
2017-06-10T00:33:46.807Z,81.00
2017-06-10T00:36:14.266Z,80.90
2017-06-10T00:38:41.731Z,80.50
2017-06-10T00:41:09.185Z,81.20
2017-06-10T00:43:36.649Z,82.90
2017-06-10T00:46:04.127Z,81.20
2017-06-10T00:48:32.370Z,81.50
2017-06-10T00:50:59.829Z,81.40
2017-06-10T00:53:27.286Z,80.50
2017-06-10T00:55:54.746Z,80.30
2017-06-10T00:58:22.206Z,80.30
2017-06-10T01:00:49.654Z,79.80
2017-06-10T01:03:17.113Z,79.80
2017-06-10T01:05:44.569Z,79.70
2017-06-10T01:08:12.027Z,79.50
2017-06-10T01:10:39.486Z,79.40
2017-06-10T01:13:06.958Z,79.20
2017-06-10T01:15:34.418Z,80.20
2017-06-10T01:18:01.897Z,80.10
2017-06-10T01:20:30.107Z,80.00
2017-06-10T01:22:57.605Z,80.00
2017-06-10T01:25:25.075Z,80.10
2017-06-10T01:27:53.313Z,78.50
2017-06-10T01:30:20.782Z,78.40
2017-06-10T01:32:48.249Z,78.60
2017-06-10T01:35:15.738Z,77.40
2017-06-10T01:37:43.953Z,78.50
2017-06-10T01:40:11.425Z,78.40
2017-06-10T01:42:38.878Z,79.40
2017-06-10T01:45:06.335Z,78.30
2017-06-10T01:47:33.786Z,78.40
2017-06-10T01:50:01.246Z,78.30
2017-06-10T01:52:28.705Z,78.40
2017-06-10T01:54:56.170Z,78.00
2017-06-10T01:57:23.621Z,78.10
2017-06-10T01:59:51.194Z,77.70
2017-06-10T02:02:18.664Z,78.70
2017-06-10T02:04:46.118Z,77.60
2017-06-10T02:07:13.582Z,76.90
2017-06-10T02:09:41.054Z,76.80
2017-06-10T02:12:09.272Z,76.00
2017-06-10T02:14:36.734Z,75.90
2017-06-10T02:17:04.180Z,76.00
2017-06-10T02:19:31.646Z,76.40
2017-06-10T02:21:59.098Z,76.30
2017-06-10T02:24:26.558Z,76.70
2017-06-10T02:26:54.010Z,76.90
2017-06-10T02:29:21.489Z,76.80
2017-06-10T02:31:48.937Z,75.80
2017-06-10T02:34:16.385Z,75.50
2017-06-10T02:36:43.825Z,75.50
2017-06-10T02:39:11.290Z,75.20
2017-06-10T02:41:38.773Z,74.50
2017-06-10T02:44:06.233Z,74.80
2017-06-10T02:46:33.806Z,75.10
2017-06-10T02:49:01.255Z,75.10
2017-06-10T02:51:28.718Z,75.70
2017-06-10T02:53:56.166Z,76.70
2017-06-10T02:56:23.671Z,76.30
2017-06-10T02:58:51.922Z,76.10
2017-06-10T03:01:19.383Z,76.00
2017-06-10T03:03:47.658Z,75.80
2017-06-10T03:06:15.885Z,76.00
2017-06-10T03:08:43.350Z,75.30
2017-06-10T03:11:10.798Z,75.40
2017-06-10T03:13:38.274Z,75.20
2017-06-10T03:16:05.728Z,75.30
2017-06-10T03:18:33.177Z,75.30
2017-06-10T03:21:00.630Z,74.80
2017-06-10T03:23:28.101Z,74.40
2017-06-10T03:25:55.557Z,73.60
2017-06-10T03:28:23.009Z,73.00
2017-06-10T03:30:50.468Z,73.10
2017-06-10T03:33:17.957Z,73.20
2017-06-10T03:35:46.193Z,73.20
2017-06-10T03:38:19.845Z,73.70
2017-06-10T03:40:48.833Z,73.10
2017-06-10T03:43:17.069Z,72.70
2017-06-10T03:48:38.506Z,73.10
2017-06-10T03:51:05.950Z,73.20
2017-06-10T03:53:33.404Z,73.80
2017-06-10T03:56:00.902Z,74.60
2017-06-10T03:58:28.348Z,75.10
2017-06-10T04:00:55.818Z,74.80
2017-06-10T04:03:23.265Z,74.50
2017-06-10T04:05:50.732Z,74.30
2017-06-10T04:08:18.181Z,74.40
2017-06-10T04:10:45.685Z,74.10
2017-06-10T04:13:13.137Z,74.00
2017-06-10T04:15:40.613Z,73.80
2017-06-10T04:18:08.049Z,74.40
2017-06-10T04:20:35.526Z,74.90
2017-06-10T04:23:02.980Z,75.40
2017-06-10T04:25:30.478Z,76.00
2017-06-10T04:27:57.926Z,75.70
2017-06-10T04:30:25.438Z,75.00
2017-06-10T04:32:53.649Z,74.90
2017-06-10T04:35:21.118Z,74.20
2017-06-10T04:37:48.620Z,74.80
2017-06-10T04:40:16.846Z,78.00
2017-06-10T04:42:44.329Z,77.90
2017-06-10T04:45:11.802Z,76.80
2017-06-10T04:47:40.046Z,75.30
2017-06-10T04:50:07.498Z,75.70
2017-06-10T04:52:34.981Z,77.10
2017-06-10T04:55:02.436Z,78.10
2017-06-10T04:57:29.903Z,78.90
2017-06-10T04:59:57.359Z,79.70
2017-06-10T05:02:24.844Z,79.40
2017-06-10T05:04:52.306Z,80.80
2017-06-10T05:07:19.757Z,80.90
2017-06-10T05:09:47.233Z,80.70
2017-06-10T05:12:14.740Z,81.70
2017-06-10T05:14:42.209Z,81.30
2017-06-10T05:17:10.426Z,81.30
2017-06-10T05:19:37.886Z,81.20
2017-06-10T05:22:05.359Z,80.90
2017-06-10T05:24:32.830Z,80.60
2017-06-10T05:27:00.293Z,82.30
2017-06-10T05:29:27.749Z,81.90
2017-06-10T05:31:55.219Z,81.90
2017-06-10T05:34:22.678Z,81.30
2017-06-10T05:36:50.132Z,81.30
2017-06-10T05:39:17.582Z,82.00
2017-06-10T05:41:45.044Z,82.40
2017-06-10T05:44:12.481Z,83.20
2017-06-10T05:46:39.961Z,82.60
2017-06-10T05:49:07.415Z,83.20
2017-06-10T05:51:34.885Z,83.70
2017-06-10T05:54:02.326Z,84.00
2017-06-10T05:56:29.774Z,82.40
2017-06-10T05:58:57.296Z,81.50
2017-06-10T06:01:24.757Z,81.40
2017-06-10T06:03:52.206Z,81.60
2017-06-10T06:06:19.669Z,82.70
2017-06-10T06:08:47.129Z,82.60
2017-06-10T06:11:14.590Z,82.80
2017-06-10T06:13:42.033Z,82.50
2017-06-10T06:16:09.501Z,83.20
2017-06-10T06:18:36.963Z,83.20
2017-06-10T06:21:04.418Z,82.40
2017-06-10T06:23:31.886Z,82.50
2017-06-10T06:25:59.337Z,82.00
2017-06-10T06:28:26.796Z,82.40
2017-06-10T06:30:54.254Z,83.60
2017-06-10T06:33:21.723Z,82.90
2017-06-10T06:35:49.176Z,82.20
2017-06-10T06:38:16.645Z,81.00
2017-06-10T06:40:44.217Z,82.80
2017-06-10T06:43:11.698Z,82.40
2017-06-10T06:45:39.917Z,80.50
2017-06-10T06:48:07.665Z,80.40
2017-06-10T06:50:35.127Z,80.50
2017-06-10T06:53:02.577Z,79.50
2017-06-10T06:55:30.025Z,81.20
2017-06-10T06:57:57.490Z,79.80
2017-06-10T07:00:24.996Z,77.70
2017-06-10T07:02:52.437Z,77.70
2017-06-10T07:05:20.386Z,78.30
2017-06-10T07:07:47.826Z,78.40
2017-06-10T07:10:15.295Z,77.10
2017-06-10T07:12:42.749Z,76.20
2017-06-10T07:15:10.214Z,75.40
2017-06-10T07:17:37.690Z,75.30
2017-06-10T07:20:05.147Z,73.60
2017-06-10T07:22:32.597Z,73.30
2017-06-10T07:25:00.059Z,74.60
2017-06-10T07:27:27.509Z,73.50
2017-06-10T07:29:54.983Z,70.70
2017-06-10T07:32:22.444Z,71.50
2017-06-10T07:34:49.902Z,72.00
2017-06-10T07:37:17.362Z,72.30
2017-06-10T07:39:44.813Z,71.70
2017-06-10T07:42:12.277Z,70.90
2017-06-10T07:44:39.718Z,71.30
2017-06-10T07:47:07.194Z,70.50
2017-06-10T07:49:34.650Z,69.60
2017-06-10T07:52:03.818Z,69.60
2017-06-10T07:54:31.280Z,69.70
2017-06-10T07:56:58.726Z,68.90
2017-06-10T07:59:26.180Z,67.70
2017-06-10T08:01:53.629Z,68.80
2017-06-10T08:04:21.084Z,66.60
2017-06-10T08:06:48.553Z,64.30
2017-06-10T08:09:16.015Z,62.90
2017-06-10T08:11:43.466Z,64.90
2017-06-10T08:14:10.926Z,61.30
2017-06-10T08:16:38.374Z,65.00
2017-06-10T08:19:05.826Z,63.80
2017-06-10T08:21:33.286Z,62.30
2017-06-10T08:24:00.741Z,62.70
2017-06-10T08:26:28.204Z,61.30
2017-06-10T08:28:55.685Z,61.60
2017-06-10T08:31:23.146Z,60.60
2017-06-10T08:33:50.589Z,60.20
2017-06-10T08:36:18.046Z,59.10
2017-06-10T08:38:45.500Z,59.00
2017-06-10T08:41:12.958Z,56.30
2017-06-10T08:43:40.413Z,54.50
2017-06-10T08:46:07.878Z,54.00
2017-06-10T08:48:35.330Z,53.30
2017-06-10T08:51:02.797Z,52.90
2017-06-10T08:53:30.248Z,55.70
2017-06-10T08:55:57.701Z,55.20
2017-06-10T08:58:25.166Z,55.20
2017-06-10T09:00:52.645Z,52.30
2017-06-10T09:03:20.105Z,52.60
2017-06-10T09:05:47.588Z,51.30
2017-06-10T09:08:15.815Z,51.50
2017-06-10T09:10:43.266Z,51.50
2017-06-10T09:13:10.733Z,52.90
2017-06-10T09:15:38.213Z,51.30
2017-06-10T09:18:05.657Z,51.00
2017-06-10T09:20:33.110Z,50.40
2017-06-10T09:23:00.573Z,51.20
2017-06-10T09:25:28.034Z,51.20
2017-06-10T09:27:55.523Z,48.90
2017-06-10T09:30:22.965Z,50.00
2017-06-10T09:32:50.426Z,48.80
2017-06-10T09:35:18.068Z,50.60
2017-06-10T09:37:45.517Z,50.20
2017-06-10T09:40:12.970Z,46.90
2017-06-10T09:42:40.457Z,48.30
2017-06-10T09:45:07.898Z,46.90
2017-06-10T09:47:35.341Z,47.60
2017-06-10T09:50:02.810Z,47.30
2017-06-10T09:52:30.271Z,46.20
2017-06-10T09:54:57.718Z,47.20
2017-06-10T09:57:25.166Z,46.40
2017-06-10T09:59:52.625Z,47.30
2017-06-10T10:02:20.077Z,47.20
2017-06-10T10:04:47.561Z,47.70
2017-06-10T10:07:15.021Z,47.70
2017-06-10T10:09:42.539Z,46.60
2017-06-10T10:12:09.986Z,45.80
2017-06-10T10:14:37.469Z,48.00
2017-06-10T10:17:04.946Z,47.80
2017-06-10T10:19:32.411Z,47.60
2017-06-10T10:21:59.862Z,48.20
2017-06-10T10:24:27.337Z,48.60
2017-06-10T10:26:55.551Z,48.70
2017-06-10T10:29:22.996Z,49.20
2017-06-10T10:31:50.466Z,48.10
2017-06-10T10:34:17.921Z,48.40
2017-06-10T10:36:45.395Z,47.10
2017-06-10T10:39:12.838Z,49.20
2017-06-10T10:41:40.294Z,49.20
2017-06-10T10:44:07.761Z,48.20
2017-06-10T10:46:35.235Z,49.30
2017-06-10T10:49:02.693Z,48.40
2017-06-10T10:51:30.161Z,47.70
2017-06-10T10:53:57.629Z,48.60
2017-06-10T10:56:25.174Z,47.50
2017-06-10T10:58:52.628Z,47.30
2017-06-10T11:01:20.087Z,47.30
2017-06-10T11:03:47.533Z,47.00
2017-06-10T11:06:14.984Z,46.60
2017-06-10T11:08:42.453Z,45.90
2017-06-10T11:11:09.910Z,46.10
2017-06-10T11:13:37.367Z,44.20
2017-06-10T11:16:04.813Z,45.20
2017-06-10T11:18:32.269Z,47.00
2017-06-10T11:20:59.737Z,44.70
2017-06-10T11:23:27.192Z,46.90
2017-06-10T11:25:54.640Z,47.10
2017-06-10T11:28:22.108Z,49.20
2017-06-10T11:30:49.570Z,48.10
2017-06-10T11:33:17.053Z,47.00
2017-06-10T11:35:44.505Z,46.50
2017-06-10T11:38:11.958Z,45.60
2017-06-10T11:40:39.425Z,47.90
2017-06-10T11:43:06.890Z,47.00
2017-06-10T11:45:35.135Z,47.60
2017-06-10T11:48:02.586Z,46.90
2017-06-10T11:50:30.070Z,47.10
2017-06-10T11:52:57.517Z,48.10
2017-06-10T11:55:24.992Z,48.40
2017-06-10T11:57:53.209Z,48.30
2017-06-10T12:00:20.662Z,48.30
2017-06-10T12:02:48.117Z,49.10
2017-06-10T12:05:15.987Z,48.00
2017-06-10T12:07:43.430Z,47.90
2017-06-10T12:10:10.870Z,47.90
2017-06-10T12:12:39.101Z,46.50
2017-06-10T12:15:06.565Z,46.50
2017-06-10T12:17:34.058Z,46.10
2017-06-10T12:20:02.301Z,47.10
2017-06-10T12:22:29.864Z,47.60
2017-06-10T12:24:57.326Z,46.60
2017-06-10T12:27:24.808Z,46.20
2017-06-10T12:29:53.034Z,45.50
2017-06-10T12:32:20.501Z,45.50
2017-06-10T12:34:48.109Z,45.30
2017-06-10T12:37:16.339Z,46.70
2017-06-10T12:39:43.812Z,46.60
2017-06-10T12:42:11.267Z,46.80
2017-06-10T12:44:39.546Z,46.70
2017-06-10T12:47:06.998Z,45.80
2017-06-10T12:52:28.253Z,46.40
2017-06-10T12:54:56.517Z,44.90
2017-06-10T12:57:23.965Z,44.90
2017-06-10T12:59:51.457Z,45.90
2017-06-10T13:02:19.657Z,45.70
2017-06-10T13:04:47.133Z,45.70
2017-06-10T13:07:14.590Z,45.20
2017-06-10T13:09:42.038Z,45.70
2017-06-10T13:12:09.497Z,45.20
2017-06-10T13:14:36.959Z,45.10
2017-06-10T13:17:04.449Z,45.70
2017-06-10T13:19:31.914Z,46.10
2017-06-10T13:21:59.394Z,45.50
2017-06-10T13:24:26.859Z,45.70
2017-06-10T13:26:54.310Z,45.00
2017-06-10T13:29:21.749Z,44.80
2017-06-10T13:31:49.983Z,43.90
2017-06-10T13:34:17.433Z,43.80
2017-06-10T13:36:44.885Z,45.30
2017-06-10T13:39:12.353Z,45.00
2017-06-10T13:41:39.841Z,44.10
2017-06-10T13:44:07.294Z,44.60
2017-06-10T13:46:34.749Z,44.40
2017-06-10T13:49:02.197Z,44.30
2017-06-10T13:51:29.662Z,43.70
2017-06-10T13:53:57.131Z,43.90
2017-06-10T13:56:24.577Z,42.90
2017-06-10T13:58:52.042Z,43.50
2017-06-10T14:01:20.902Z,42.60
2017-06-10T14:03:48.375Z,44.00
2017-06-10T14:06:15.827Z,43.10
2017-06-10T14:08:43.302Z,44.10
2017-06-10T14:11:10.745Z,45.80
2017-06-10T14:13:38.201Z,44.70
2017-06-10T14:16:05.668Z,44.30
2017-06-10T14:18:33.124Z,43.60
2017-06-10T14:21:00.593Z,43.80
2017-06-10T14:23:28.044Z,44.10
2017-06-10T14:25:55.515Z,44.10
2017-06-10T14:28:23.738Z,43.50
2017-06-10T14:30:51.222Z,43.50
2017-06-10T14:33:18.677Z,42.60
2017-06-10T14:35:46.152Z,41.50
2017-06-10T14:38:13.593Z,41.40
2017-06-10T14:40:41.061Z,41.80
2017-06-10T14:43:08.611Z,43.00
2017-06-10T14:45:36.073Z,42.20
2017-06-10T14:48:03.526Z,42.40
2017-06-10T14:50:30.977Z,41.80
2017-06-10T14:52:58.429Z,42.10
2017-06-10T14:55:25.878Z,42.40
2017-06-10T14:57:53.354Z,42.20
2017-06-10T15:00:20.818Z,41.70
2017-06-10T15:02:48.270Z,41.20
2017-06-10T15:05:17.749Z,40.80
2017-06-10T15:07:45.201Z,41.50
2017-06-10T15:10:12.652Z,40.70
2017-06-10T15:12:40.099Z,41.10
2017-06-10T15:15:07.568Z,41.60
2017-06-10T15:17:35.030Z,40.80
2017-06-10T15:20:02.514Z,41.00
2017-06-10T15:22:29.965Z,41.60
2017-06-10T15:24:57.434Z,41.10
2017-06-10T15:27:24.885Z,40.60
2017-06-10T15:29:52.355Z,42.30
2017-06-10T15:32:19.815Z,43.20
2017-06-10T15:34:47.299Z,42.30
2017-06-10T15:37:14.761Z,43.00
2017-06-10T15:39:42.241Z,43.20
2017-06-10T15:42:09.751Z,43.20
2017-06-10T15:44:37.192Z,43.70
2017-06-10T15:47:04.666Z,45.20
2017-06-10T15:49:32.105Z,45.50
2017-06-10T15:51:59.558Z,46.40
2017-06-10T15:54:27.003Z,45.20
2017-06-10T15:56:54.482Z,44.30
2017-06-10T15:59:21.929Z,43.40
2017-06-10T16:01:49.390Z,42.40
2017-06-10T16:04:16.846Z,41.90
2017-06-10T16:06:44.329Z,41.20
2017-06-10T16:09:12.562Z,41.00
2017-06-10T16:11:40.019Z,40.80
2017-06-10T16:14:07.472Z,39.00
2017-06-10T16:16:34.954Z,39.40
2017-06-10T16:19:02.413Z,39.40
2017-06-10T16:21:29.877Z,38.60
2017-06-10T16:26:50.042Z,37.40
2017-06-10T16:29:17.497Z,37.40
2017-06-10T16:31:44.969Z,37.10
2017-06-10T16:34:12.419Z,37.00
2017-06-10T16:36:39.875Z,36.60
2017-06-10T16:39:07.343Z,36.10
2017-06-10T16:41:34.801Z,35.00
2017-06-10T16:44:02.280Z,34.90
2017-06-10T16:46:29.737Z,33.60
2017-06-10T16:48:57.186Z,33.00
2017-06-10T16:51:24.661Z,32.30
2017-06-10T16:53:52.136Z,31.70
2017-06-10T16:56:19.591Z,30.40
2017-06-10T16:58:47.813Z,30.50
2017-06-10T17:01:15.293Z,30.50
2017-06-10T17:03:42.742Z,30.80
2017-06-10T17:06:10.204Z,30.00
2017-06-10T17:08:37.658Z,30.20
2017-06-10T17:11:05.132Z,31.00
2017-06-10T17:13:32.593Z,30.90
2017-06-10T17:16:00.858Z,30.50
2017-06-10T17:18:28.307Z,30.20
2017-06-10T17:20:55.775Z,29.50
2017-06-10T17:23:23.230Z,29.70
2017-06-10T17:25:50.706Z,29.70
2017-06-10T17:28:18.942Z,30.00
2017-06-10T17:30:46.398Z,30.00
2017-06-10T17:33:13.855Z,29.40
2017-06-10T17:35:41.340Z,29.50
2017-06-10T17:38:08.810Z,29.80
2017-06-10T17:40:37.072Z,29.10
2017-06-10T17:43:04.542Z,29.10
2017-06-10T17:45:32.022Z,29.10
2017-06-10T17:47:59.489Z,29.30
2017-06-10T17:50:26.942Z,30.50
2017-06-10T17:52:54.401Z,33.10
2017-06-10T17:55:21.874Z,36.10
2017-06-10T17:57:49.326Z,38.80
2017-06-10T18:00:16.787Z,40.90
2017-06-10T18:02:44.289Z,42.50
2017-06-10T18:05:12.210Z,44.20
2017-06-10T18:07:39.817Z,45.40
2017-06-10T18:10:07.281Z,45.60
2017-06-10T18:12:34.722Z,46.80
2017-06-10T18:15:02.173Z,47.40
2017-06-10T18:17:29.637Z,48.10
2017-06-10T18:19:57.107Z,49.20
2017-06-10T18:22:24.579Z,49.30
2017-06-10T18:24:52.809Z,50.50
2017-06-10T18:27:20.288Z,50.50
2017-06-10T18:29:47.759Z,50.00
2017-06-10T18:32:15.205Z,50.40
2017-06-10T18:34:42.688Z,50.70
2017-06-10T18:37:10.917Z,52.20
2017-06-10T18:39:44.850Z,52.10
2017-06-10T18:42:12.310Z,52.10
2017-06-10T18:44:40.010Z,52.10
2017-06-10T18:47:07.467Z,52.90
2017-06-10T18:49:34.954Z,52.50
2017-06-10T18:52:02.422Z,52.80
2017-06-10T18:54:29.869Z,53.00
2017-06-10T18:56:57.339Z,53.50
2017-06-10T18:59:24.790Z,53.50
2017-06-10T19:01:52.258Z,53.40
2017-06-10T19:04:19.715Z,54.00
2017-06-10T19:06:47.179Z,54.00
2017-06-10T19:09:15.453Z,55.50
2017-06-10T19:11:42.926Z,55.50
2017-06-10T19:14:10.369Z,56.00
2017-06-10T19:16:37.830Z,56.40
2017-06-10T19:19:05.303Z,56.70
2017-06-10T19:21:32.745Z,56.60
2017-06-10T19:24:00.197Z,56.70
2017-06-10T19:26:27.658Z,56.90
2017-06-10T19:28:55.116Z,56.90
2017-06-10T19:31:22.575Z,56.80
2017-06-10T19:33:50.025Z,57.40
2017-06-10T19:36:17.470Z,58.60
2017-06-10T19:38:44.926Z,58.60
2017-06-10T19:41:12.379Z,59.00
2017-06-10T19:43:39.838Z,59.20
2017-06-10T19:46:07.334Z,59.60
2017-06-10T19:48:35.581Z,59.40
2017-06-10T19:51:03.047Z,59.40
2017-06-10T19:53:30.511Z,60.00
2017-06-10T19:55:57.979Z,60.20
2017-06-10T19:58:26.203Z,60.20
2017-06-10T20:00:53.674Z,60.20
2017-06-10T20:03:21.147Z,60.60
2017-06-10T20:05:48.605Z,61.20
2017-06-10T20:08:16.063Z,61.10
2017-06-10T20:10:43.529Z,61.40
2017-06-10T20:13:10.999Z,61.40
2017-06-10T20:15:39.224Z,62.00
2017-06-10T20:18:06.725Z,61.90
2017-06-10T20:20:34.173Z,62.00
2017-06-10T20:23:01.631Z,62.30
2017-06-10T20:25:29.094Z,61.90
2017-06-10T20:27:56.553Z,61.60
2017-06-10T20:30:24.005Z,61.50
2017-06-10T20:32:51.465Z,62.30
2017-06-10T20:35:19.174Z,61.80
2017-06-10T20:37:46.630Z,62.00
2017-06-10T20:40:14.083Z,61.90
2017-06-10T20:42:41.544Z,62.60
2017-06-10T20:45:09.050Z,63.00
2017-06-10T20:47:36.519Z,62.70
2017-06-10T20:50:03.969Z,62.20
2017-06-10T20:52:31.518Z,61.80
2017-06-10T20:54:59.002Z,61.90
2017-06-10T20:57:27.239Z,61.70
2017-06-10T20:59:54.701Z,61.70
2017-06-10T21:02:22.155Z,62.00
2017-06-10T21:04:49.610Z,62.70
2017-06-10T21:07:17.058Z,62.50
2017-06-10T21:09:44.522Z,63.20
2017-06-10T21:12:11.977Z,63.20
2017-06-10T21:14:39.443Z,63.90
2017-06-10T21:17:06.910Z,64.10
2017-06-10T21:19:34.373Z,64.10
2017-06-10T21:22:01.833Z,63.80
2017-06-10T21:24:29.276Z,64.30
2017-06-10T21:26:56.737Z,64.50
2017-06-10T21:29:24.201Z,64.40
2017-06-10T21:31:51.670Z,63.80
2017-06-10T21:34:19.126Z,64.40
2017-06-10T21:36:46.585Z,64.40
2017-06-10T21:39:14.026Z,64.70
2017-06-10T21:41:41.553Z,64.90
2017-06-10T21:44:09.026Z,65.20
2017-06-10T21:46:36.494Z,64.10
2017-06-10T21:49:03.950Z,64.00
2017-06-10T21:51:31.431Z,64.20
2017-06-10T21:53:58.894Z,64.10
2017-06-10T21:56:26.354Z,64.60
2017-06-10T21:58:54.585Z,64.30
2017-06-10T22:01:22.029Z,64.20
2017-06-10T22:03:49.508Z,64.40
2017-06-10T22:06:16.969Z,64.50
2017-06-10T22:08:44.423Z,64.40
2017-06-10T22:11:11.895Z,64.70
2017-06-10T22:13:39.375Z,65.00
2017-06-10T22:16:07.622Z,65.30
2017-06-10T22:18:35.083Z,65.30
2017-06-10T22:21:02.540Z,65.30
2017-06-10T22:23:29.995Z,64.90
2017-06-10T22:25:57.446Z,64.90
2017-06-10T22:28:24.929Z,64.80
2017-06-10T22:30:52.371Z,64.70
2017-06-10T22:33:19.839Z,65.10
2017-06-10T22:35:47.294Z,65.10
2017-06-10T22:38:14.753Z,65.50
2017-06-10T22:40:42.226Z,66.40
2017-06-10T22:43:10.445Z,66.10
2017-06-10T22:45:37.913Z,66.00
2017-06-10T22:48:05.359Z,66.40
2017-06-10T22:50:32.809Z,66.90
2017-06-10T22:53:00.301Z,67.60
2017-06-10T22:55:27.771Z,66.30
2017-06-10T22:57:55.204Z,65.20
2017-06-10T23:00:22.673Z,65.00
2017-06-10T23:02:50.125Z,65.70
2017-06-10T23:05:17.834Z,65.80
2017-06-10T23:07:46.036Z,66.10
2017-06-10T23:10:13.485Z,66.10
2017-06-10T23:12:40.955Z,66.20
2017-06-10T23:15:08.402Z,66.30
2017-06-10T23:17:35.861Z,67.00
2017-06-10T23:20:03.310Z,67.20
2017-06-10T23:22:30.758Z,66.60
2017-06-10T23:24:58.250Z,66.40
2017-06-10T23:27:25.714Z,66.40
2017-06-10T23:29:53.175Z,66.80
2017-06-10T23:32:20.622Z,66.80
2017-06-10T23:34:48.070Z,67.40
2017-06-10T23:37:15.534Z,67.00
2017-06-10T23:39:43.039Z,67.20
2017-06-10T23:42:11.261Z,67.10
2017-06-10T23:44:38.733Z,67.00
2017-06-10T23:47:06.178Z,67.20
2017-06-10T23:49:33.639Z,67.20
2017-06-10T23:52:01.102Z,67.40
2017-06-10T23:54:28.553Z,67.60
2017-06-10T23:56:56.012Z,67.80
2017-06-10T23:59:23.468Z,67.90
